Time;durP1;ratioP1;P1;durP2;ratioP2;P2;SDS_P1;SDS_P2;PMS_P1;PMS_P2;Temp;Humidity;BMP_temperature;BMP_pressure;BME280_temperature;BME280_humidity;BME280_pressure;Samples;Min_cycle;Max_cycle;Signal;HPM_P1;HPM_P2
2022/11/09 00:00:43;;;;;;;1999.90;999.90;;;;;;;11.21;85.76;100194.13;4965364;28;20065;-76
2022/11/09 00:03:09;;;;;;;1999.90;999.90;;;;;;;11.16;85.58;100191.59;4972869;28;20074;-75
2022/11/09 00:05:35;;;;;;;1999.90;999.90;;;;;;;11.13;86.19;100198.66;4966125;28;20086;-76
2022/11/09 00:08:00;;;;;;;1999.90;999.90;;;;;;;11.08;86.08;100195.22;4967543;28;20043;-76
2022/11/09 00:10:26;;;;;;;1999.90;999.90;;;;;;;10.99;87.09;100198.84;4960065;28;20042;-76
2022/11/09 00:12:51;;;;;;;1999.90;999.90;;;;;;;10.95;87.68;100203.31;4965046;28;20481;-76
2022/11/09 00:15:16;;;;;;;1999.90;999.90;;;;;;;10.90;88.15;100196.34;4965513;28;20117;-76
2022/11/09 00:17:41;;;;;;;1999.90;999.90;;;;;;;10.90;88.02;100197.22;4965312;28;20071;-76
2022/11/09 00:20:07;;;;;;;1999.90;999.90;;;;;;;10.91;88.53;100188.38;4969176;28;20073;-76
2022/11/09 00:22:33;;;;;;;1999.90;999.90;;;;;;;10.90;88.82;100191.94;4967434;28;20074;-75
2022/11/09 00:24:58;;;;;;;1999.90;999.90;;;;;;;10.86;88.72;100190.22;4963760;28;20043;-75
2022/11/09 00:27:23;;;;;;;1999.90;999.90;;;;;;;10.81;88.53;100189.41;4966082;28;20054;-75
2022/11/09 00:29:49;;;;;;;1999.90;999.90;;;;;;;10.74;89.37;100193.91;4964765;28;20039;-75
2022/11/09 00:32:17;;;;;;;1999.90;999.90;;;;;;;10.71;89.19;100191.28;4964865;28;20046;-76
2022/11/09 00:34:43;;;;;;;1999.90;999.90;;;;;;;10.62;89.72;100195.81;4964619;28;20516;-75
2022/11/09 00:37:08;;;;;;;1999.90;999.90;;;;;;;10.58;90.27;100194.94;4967151;28;20034;-75
2022/11/09 00:39:36;;;;;;;1999.90;999.90;;;;;;;10.56;89.93;100193.22;4963852;28;20031;-76
2022/11/09 00:42:02;;;;;;;1999.90;999.90;;;;;;;10.52;89.99;100193.25;4969974;28;20482;-77
2022/11/09 00:44:28;;;;;;;1999.90;999.90;;;;;;;10.47;89.86;100196.84;4969369;28;20126;-75
2022/11/09 00:46:53;;;;;;;1999.90;999.90;;;;;;;10.39;90.33;100194.28;4947820;28;20067;-75
2022/11/09 00:49:19;;;;;;;1999.90;999.90;;;;;;;10.33;91.20;100196.13;4964779;28;20050;-75
2022/11/09 00:51:44;;;;;;;1999.90;999.90;;;;;;;10.26;90.93;100197.91;4963052;28;20031;-75
2022/11/09 00:54:10;;;;;;;1999.90;999.90;;;;;;;10.23;91.41;100200.59;4966163;28;20038;-75
2022/11/09 00:56:35;;;;;;;1999.90;999.90;;;;;;;10.23;91.76;100192.66;4959325;28;20038;-75
2022/11/09 00:59:01;;;;;;;1999.90;999.90;;;;;;;10.22;92.25;100191.81;4963412;28;20398;-75
2022/11/09 01:01:27;;;;;;;1999.90;999.90;;;;;;;10.22;91.99;100196.22;4963828;28;20031;-76
2022/11/09 01:03:52;;;;;;;1999.90;999.90;;;;;;;10.23;92.30;100192.66;4972946;28;20039;-75
2022/11/09 01:06:20;;;;;;;1999.90;999.90;;;;;;;10.25;93.32;100197.03;4966418;28;20034;-76
2022/11/09 01:08:46;;;;;;;1999.90;999.90;;;;;;;10.20;93.08;100192.72;4948328;28;20042;-75
2022/11/09 01:11:14;;;;;;;1999.90;999.90;;;;;;;10.14;93.51;100198.03;4962931;28;20028;-76
2022/11/09 01:13:39;;;;;;;1999.90;999.90;;;;;;;10.09;94.68;100196.31;4964120;28;20088;-76
2022/11/09 01:16:12;;;;;;;1999.90;999.90;;;;;;;10.05;95.08;100191.09;4960820;28;20101;-75
2022/11/09 01:18:38;;;;;;;1999.90;999.90;;;;;;;9.98;96.44;100195.56;4964843;28;20033;-76
2022/11/09 01:21:05;;;;;;;1999.90;999.90;;;;;;;9.95;96.82;100192.91;4964773;28;20450;-76
2022/11/09 01:23:32;;;;;;;1999.90;999.90;;;;;;;9.87;98.16;100189.47;4972394;28;20039;-75
2022/11/09 01:25:59;;;;;;;1999.90;999.90;;;;;;;9.82;99.06;100193.91;4961925;28;20134;-76
2022/11/09 01:28:24;;;;;;;1999.90;999.90;;;;;;;9.75;99.43;100200.16;4965802;28;20046;-76
2022/11/09 01:30:50;;;;;;;1999.90;999.90;;;;;;;9.69;99.66;100201.03;4968095;28;20031;-75
2022/11/09 01:33:15;;;;;;;1999.90;999.90;;;;;;;9.62;99.81;100194.97;4966389;28;20062;-75
2022/11/09 01:35:41;;;;;;;1999.90;999.90;;;;;;;9.60;99.09;100196.72;4964174;28;20045;-75
2022/11/09 01:38:07;;;;;;;1999.90;999.90;;;;;;;9.55;98.63;100193.25;4965471;28;20039;-76
2022/11/09 01:40:35;;;;;;;1999.90;999.90;;;;;;;9.48;98.79;100196.81;4967449;28;20495;-75
2022/11/09 01:43:18;;;;;;;1999.90;999.90;;;;;;;9.47;99.03;100192.44;4962260;28;20133;-75
2022/11/09 01:45:58;;;;;;;1999.90;999.90;;;;;;;9.50;99.09;100194.19;4962584;28;20035;-76
2022/11/09 01:48:37;;;;;;;1999.90;999.90;;;;;;;9.55;99.46;100198.53;4965480;28;20041;-75
2022/11/09 01:51:16;;;;;;;1999.90;999.90;;;;;;;9.61;98.75;100202.88;4965447;28;20034;-75
2022/11/09 01:53:46;;;;;;;1999.90;999.90;;;;;;;9.62;98.50;100191.47;4965349;28;20062;-75
2022/11/09 01:56:16;;;;;;;1999.90;999.90;;;;;;;9.64;98.36;100195.84;4964438;28;20170;-75
2022/11/09 01:58:51;;;;;;;1999.90;999.90;;;;;;;9.72;98.37;100184.34;4963070;28;20046;-75
2022/11/09 02:01:19;;;;;;;1999.90;999.90;;;;;;;9.70;97.92;100181.72;4964976;28;20027;-76
2022/11/09 02:03:49;;;;;;;1999.90;999.90;;;;;;;9.72;98.13;100185.25;4968612;28;20576;-75
2022/11/09 02:06:17;;;;;;;1999.90;999.90;;;;;;;9.74;98.29;100180.81;4958479;28;20035;-75
2022/11/09 02:08:45;;;;;;;1999.90;999.90;;;;;;;9.76;97.84;100175.53;4978860;28;20035;-76
2022/11/09 02:11:15;;;;;;;1999.90;999.90;;;;;;;9.77;97.84;100169.34;4964718;28;20117;-76
2022/11/09 02:13:48;;;;;;;1999.90;999.90;;;;;;;9.79;98.38;100170.22;4960979;28;20031;-75
2022/11/09 02:16:14;;;;;;;1999.90;999.90;;;;;;;9.82;98.05;100171.09;4961760;28;20399;-75
2022/11/09 02:18:52;;;;;;;1999.90;999.90;;;;;;;9.84;98.15;100174.56;4959958;28;20130;-76
2022/11/09 02:21:19;;;;;;;1999.90;999.90;;;;;;;9.83;97.96;100177.25;4963601;28;20069;-76
2022/11/09 02:23:46;;;;;;;1999.90;999.90;;;;;;;9.79;97.97;100175.50;4959282;28;20548;-75
2022/11/09 02:26:22;;;;;;;1999.90;999.90;;;;;;;9.69;99.54;100165.91;4963293;28;20121;-75
2022/11/09 02:28:48;;;;;;;1999.90;999.90;;;;;;;9.70;98.79;100175.59;4967041;28;20034;-75
2022/11/09 02:31:16;;;;;;;1999.90;999.90;;;;;;;9.66;99.14;100170.31;4962650;28;20101;-75
2022/11/09 02:33:54;;;;;;;1999.90;999.90;;;;;;;9.59;99.59;100168.66;4960560;28;20039;-75
2022/11/09 02:36:22;;;;;;;1999.90;999.90;;;;;;;9.54;99.98;100175.72;4980869;28;20045;-75
2022/11/09 02:38:50;;;;;;;1999.90;999.90;;;;;;;9.53;99.52;100166.03;4962038;28;20031;-75
2022/11/09 02:41:16;;;;;;;1999.90;999.90;;;;;;;9.52;100.00;100159.03;4959812;28;20132;-75
2022/11/09 02:43:41;;;;;;;1999.90;999.90;;;;;;;9.52;100.00;100166.94;4964600;28;20039;-75
2022/11/09 02:46:07;;;;;;;1999.90;999.90;;;;;;;9.52;100.00;100166.94;4957111;28;20082;-75
2022/11/09 02:48:32;;;;;;;1999.90;999.90;;;;;;;9.55;100.00;100164.28;4961119;28;20039;-75
2022/11/09 02:50:57;;;;;;;1999.90;999.90;;;;;;;9.58;100.00;100166.88;4962175;28;20469;-75
2022/11/09 02:57:04;;;;;;;1999.90;999.90;;;;;;;9.55;100.00;100160.78;5060443;28;20390;-75
2022/11/09 02:59:30;;;;;;;1999.90;999.90;;;;;;;9.51;99.91;100159.94;5056615;28;20099;-76
2022/11/09 03:01:57;;;;;;;1999.90;999.90;;;;;;;9.43;100.00;100156.47;5058507;28;20079;-75
2022/11/09 03:04:22;;;;;;;1999.90;999.90;;;;;;;9.35;100.00;100163.53;5056653;28;20048;-76
2022/11/09 03:06:48;;;;;;;1999.90;999.90;;;;;;;9.31;100.00;100159.19;5058090;28;20558;-76
2022/11/09 03:09:17;;;;;;;1999.90;999.90;;;;;;;9.23;100.00;100166.28;5056617;28;20095;-75
2022/11/09 03:11:42;;;;;;;1999.90;999.90;;;;;;;9.20;100.00;100173.31;5058085;28;20032;-76
2022/11/09 03:14:10;;;;;;;1999.90;999.90;;;;;;;9.21;100.00;100168.91;5058375;28;20379;-76
2022/11/09 03:16:38;;;;;;;1999.90;999.90;;;;;;;9.18;100.00;100172.44;5054946;28;20032;-75
2022/11/09 03:19:05;;;;;;;1999.90;999.90;;;;;;;9.14;100.00;100170.72;5057850;28;20032;-76
2022/11/09 03:21:31;;;;;;;1999.90;999.90;;;;;;;9.08;100.00;100169.88;5056523;28;20029;-75
2022/11/09 03:23:56;;;;;;;1999.90;999.90;;;;;;;9.06;100.00;100177.75;5056413;28;20036;-75
2022/11/09 03:26:22;;;;;;;1999.90;999.90;;;;;;;9.05;100.00;100178.66;5039187;28;20029;-76
2022/11/09 03:28:47;;;;;;;1999.90;999.90;;;;;;;9.03;100.00;100177.78;5052225;28;20037;-75
2022/11/09 03:31:13;;;;;;;1999.90;999.90;;;;;;;8.95;100.00;100174.31;5056106;28;20060;-76
2022/11/09 03:33:39;;;;;;;1999.90;999.90;;;;;;;8.96;100.00;100176.06;5058959;28;20029;-75
2022/11/09 03:36:05;;;;;;;1999.90;999.90;;;;;;;8.96;100.00;100178.69;5053921;28;20036;-75
2022/11/09 03:38:30;;;;;;;1999.90;999.90;;;;;;;8.97;100.00;100188.38;5058006;28;20046;-75
2022/11/09 03:40:58;;;;;;;1999.90;999.90;;;;;;;9.02;100.00;100178.69;5057646;28;20444;-75
2022/11/09 03:43:24;;;;;;;1999.90;999.90;;;;;;;9.08;100.00;100186.53;5037837;28;20036;-75
2022/11/09 03:45:49;;;;;;;1999.90;999.90;;;;;;;9.10;100.00;100179.50;5058600;28;20033;-75
2022/11/09 03:48:14;;;;;;;1999.90;999.90;;;;;;;9.18;100.00;100182.09;5056695;28;20052;-76
2022/11/09 03:50:40;;;;;;;1999.90;999.90;;;;;;;9.31;100.00;100177.63;5055709;28;20037;-75
2022/11/09 03:53:08;;;;;;;1999.90;999.90;;;;;;;9.41;100.00;100171.44;5057251;28;20060;-75
2022/11/09 03:55:33;;;;;;;1999.90;999.90;;;;;;;9.47;100.00;100174.00;5058048;28;20123;-75
2022/11/09 03:57:59;;;;;;;1999.90;999.90;;;;;;;9.51;100.00;100164.31;5055664;28;20166;-76
2022/11/09 04:00:24;;;;;;;1999.90;999.90;;;;;;;9.50;100.00;100158.16;5056653;28;20033;-76
2022/11/09 04:02:50;;;;;;;1999.90;999.90;;;;;;;9.50;100.00;100163.44;5058155;28;20446;-76
2022/11/09 04:05:16;;;;;;;1999.90;999.90;;;;;;;9.57;100.00;100165.16;5056821;28;20496;-75
2022/11/09 04:08:07;;;;;;;1999.90;999.90;;;;;;;9.69;100.00;100176.47;5047547;28;20037;-76
2022/11/09 04:10:33;;;;;;;1999.90;999.90;;;;;;;9.77;100.00;100175.53;5042970;28;20044;-76
2022/11/09 04:12:58;;;;;;;1999.90;999.90;;;;;;;9.86;100.00;100178.06;5042514;28;20287;-75
2022/11/09 04:15:24;;;;;;;1999.90;999.90;;;;;;;9.92;100.00;100171.88;5041521;28;20022;-75
2022/11/09 04:17:57;;;;;;;1999.90;999.90;;;;;;;9.95;100.00;100163.91;5043714;28;20068;-75
2022/11/09 04:20:24;;;;;;;1999.90;999.90;;;;;;;9.94;99.30;100169.22;5043944;28;20033;-76
2022/11/09 04:23:00;;;;;;;1999.90;999.90;;;;;;;9.93;99.56;100170.09;5042567;28;20035;-75
2022/11/09 04:25:27;;;;;;;1999.90;999.90;;;;;;;9.98;99.10;100174.47;5039753;28;20143;-76
2022/11/09 04:27:57;;;;;;;1999.90;999.90;;;;;;;10.06;98.80;100169.09;5043518;28;20044;-75
2022/11/09 04:30:26;;;;;;;1999.90;999.90;;;;;;;10.10;98.41;100166.41;5044811;28;20041;-76
2022/11/09 04:32:52;;;;;;;1999.90;999.90;;;;;;;10.13;98.71;100169.91;5039107;28;20033;-75
2022/11/09 04:35:17;;;;;;;1999.90;999.90;;;;;;;10.17;98.91;100174.28;5042276;28;20044;-76
2022/11/09 04:37:42;;;;;;;1999.90;999.90;;;;;;;10.22;98.01;100185.66;5043654;28;20053;-76
2022/11/09 04:40:08;;;;;;;1999.90;999.90;;;;;;;10.29;97.70;100182.94;5043535;28;20036;-77
2022/11/09 04:42:34;;;;;;;1999.90;999.90;;;;;;;10.39;97.07;100182.88;5035947;28;20029;-76
2022/11/09 04:44:59;;;;;;;1999.90;999.90;;;;;;;10.45;96.03;100178.41;5042401;28;20496;-76
2022/11/09 04:47:24;;;;;;;1999.90;999.90;;;;;;;10.48;95.35;100178.38;5038163;28;20487;-75
2022/11/09 04:49:49;;;;;;;1999.90;999.90;;;;;;;10.57;95.42;100176.50;5036490;28;20510;-75
2022/11/09 04:52:15;;;;;;;1999.90;999.90;;;;;;;10.70;94.76;100178.97;5031976;28;20034;-76
2022/11/09 04:54:40;;;;;;;1999.90;999.90;;;;;;;10.71;94.03;100179.84;5037228;28;20056;-76
2022/11/09 04:57:05;;;;;;;1999.90;999.90;;;;;;;10.71;93.77;100193.03;5043245;28;20029;-76
2022/11/09 04:59:31;;;;;;;1999.90;999.90;;;;;;;10.74;93.69;100178.06;5041954;28;20041;-75
2022/11/09 05:01:56;;;;;;;1999.90;999.90;;;;;;;10.81;93.23;100178.84;5034282;28;20049;-76
2022/11/09 05:04:21;;;;;;;1999.90;999.90;;;;;;;10.84;92.86;100176.16;5040560;28;20044;-75
2022/11/09 05:06:47;;;;;;;1999.90;999.90;;;;;;;10.85;92.85;100177.91;5044225;28;20048;-76
2022/11/09 05:09:12;;;;;;;1999.90;999.90;;;;;;;10.83;92.89;100179.69;5043244;28;20052;-75
2022/11/09 05:11:37;;;;;;;1999.90;999.90;;;;;;;10.85;93.17;100183.19;5044366;28;20045;-75
2022/11/09 05:14:03;;;;;;;1999.90;999.90;;;;;;;10.80;92.79;100190.31;5043203;28;20048;-75
2022/11/09 05:16:30;;;;;;;1999.90;999.90;;;;;;;10.79;92.71;100179.75;5041074;28;20030;-74
2022/11/09 05:18:55;;;;;;;1999.90;999.90;;;;;;;10.79;92.89;100185.03;5034422;28;20042;-74
2022/11/09 05:21:20;;;;;;;1999.90;999.90;;;;;;;10.73;92.71;100178.06;5043003;28;20033;-75
2022/11/09 05:23:58;;;;;;;1999.90;999.90;;;;;;;10.65;92.74;100179.94;5041583;28;20041;-74
2022/11/09 05:26:25;;;;;;;1999.90;999.90;;;;;;;10.64;92.62;100184.34;5043209;28;20546;-74
2022/11/09 05:28:51;;;;;;;1999.90;999.90;;;;;;;10.60;92.54;100185.25;5038833;28;20030;-74
2022/11/09 05:31:17;;;;;;;1999.90;999.90;;;;;;;10.59;92.45;100196.72;5041735;28;20032;-75
2022/11/09 05:33:43;;;;;;;1999.90;999.90;;;;;;;10.61;92.99;100189.66;5027882;28;20086;-75
2022/11/09 05:36:08;;;;;;;1999.90;999.90;;;;;;;10.65;93.02;100195.75;5029879;28;20068;-75
2022/11/09 05:38:33;;;;;;;1999.90;999.90;;;;;;;10.67;92.43;100186.06;5023206;28;20044;-75
2022/11/09 05:40:59;;;;;;;1999.90;999.90;;;;;;;10.55;92.58;100191.47;5027497;28;20470;-74
2022/11/09 05:43:24;;;;;;;1999.90;999.90;;;;;;;10.53;92.57;100195.03;5028363;28;20641;-74
2022/11/09 05:45:49;;;;;;;1999.90;999.90;;;;;;;10.62;92.51;100193.16;5041514;28;20585;-74
2022/11/09 05:48:16;;;;;;;1999.90;999.90;;;;;;;10.64;92.18;100194.03;5032846;28;20499;-74
2022/11/09 05:50:42;;;;;;;1999.90;999.90;;;;;;;10.63;91.70;100200.19;5041491;28;20032;-74
2022/11/09 05:53:16;;;;;;;1999.90;999.90;;;;;;;10.62;92.39;100195.81;5038911;28;20048;-74
2022/11/09 05:55:41;;;;;;;1999.90;999.90;;;;;;;10.66;91.83;100198.41;5042672;28;20065;-74
2022/11/09 05:58:06;;;;;;;1999.90;999.90;;;;;;;10.65;92.02;100195.75;5033646;28;20045;-74
2022/11/09 06:00:32;;;;;;;1999.90;999.90;;;;;;;10.68;92.02;100206.28;5035884;28;20044;-75
2022/11/09 06:03:05;;;;;;;1999.90;999.90;;;;;;;10.70;91.55;100201.88;5039487;28;20120;-74
2022/11/09 06:05:32;;;;;;;1999.90;999.90;;;;;;;10.68;91.48;100195.72;5034258;28;20033;-74
2022/11/09 06:08:02;;;;;;;1999.90;999.90;;;;;;;10.62;92.38;100198.44;5040641;28;20044;-74
2022/11/09 06:10:27;;;;;;;1999.90;999.90;;;;;;;10.62;91.73;100203.72;5040289;28;20059;-74
2022/11/09 06:12:53;;;;;;;1999.90;999.90;;;;;;;10.60;91.85;100202.84;5039334;28;20679;-75
2022/11/09 06:15:18;;;;;;;1999.90;999.90;;;;;;;10.62;91.99;100194.03;5040578;28;20041;-75
2022/11/09 06:17:43;;;;;;;1999.90;999.90;;;;;;;10.64;91.93;100196.66;5042288;28;20051;-74
2022/11/09 06:20:09;;;;;;;1999.90;999.90;;;;;;;10.65;92.02;100207.19;5040337;28;20037;-74
2022/11/09 06:22:34;;;;;;;1999.90;999.90;;;;;;;10.61;91.84;100209.88;5042073;28;20116;-74
2022/11/09 06:25:00;;;;;;;1999.90;999.90;;;;;;;10.46;92.49;100198.63;5041616;28;20074;-74
2022/11/09 06:27:26;;;;;;;1999.90;999.90;;;;;;;10.31;92.57;100198.78;5040494;28;20041;-74
2022/11/09 06:29:51;;;;;;;1999.90;999.90;;;;;;;10.26;93.31;100192.63;5038747;28;20033;-74
2022/11/09 06:32:16;;;;;;;1999.90;999.90;;;;;;;10.25;93.34;100201.44;5037717;28;20487;-74
2022/11/09 06:34:43;;;;;;;1999.90;999.90;;;;;;;10.23;93.93;100211.13;5034168;28;20076;-74
2022/11/09 06:37:08;;;;;;;1999.90;999.90;;;;;;;10.24;94.26;100211.13;5039521;28;20029;-74
2022/11/09 06:39:33;;;;;;;1999.90;999.90;;;;;;;10.30;94.11;100204.94;5041084;28;20060;-74
2022/11/09 06:41:59;;;;;;;1999.90;999.90;;;;;;;10.35;93.53;100208.41;5044109;28;20159;-74
2022/11/09 06:44:25;;;;;;;1999.90;999.90;;;;;;;10.39;93.82;100211.88;5037319;28;20427;-74
2022/11/09 06:46:50;;;;;;;1999.90;999.90;;;;;;;10.40;93.92;100211.88;5042363;28;20029;-74
2022/11/09 06:49:15;;;;;;;1999.90;999.90;;;;;;;10.42;94.09;100218.00;5039403;28;20178;-74
2022/11/09 06:51:40;;;;;;;1999.90;999.90;;;;;;;10.47;94.51;100210.91;5042082;28;20033;-74
2022/11/09 06:54:06;;;;;;;1999.90;999.90;;;;;;;10.55;94.17;100212.59;5040587;28;20071;-74
2022/11/09 06:56:31;;;;;;;1999.90;999.90;;;;;;;10.64;94.19;100225.69;5040367;28;20025;-74
2022/11/09 06:58:56;;;;;;;1999.90;999.90;;;;;;;10.66;93.89;100226.53;5041754;28;20051;-74
2022/11/09 07:01:27;;;;;;;1999.90;999.90;;;;;;;10.77;94.29;100240.50;5040103;28;20045;-74
2022/11/09 07:03:52;;;;;;;1999.90;999.90;;;;;;;10.85;93.85;100230.72;5036155;28;20041;-74
2022/11/09 07:06:18;;;;;;;1999.90;999.90;;;;;;;10.90;93.62;100223.63;5040218;28;20084;-74
2022/11/09 07:08:43;;;;;;;1999.90;999.90;;;;;;;10.95;93.83;100234.09;5040861;28;20030;-74
2022/11/09 07:11:15;;;;;;;1999.90;999.90;;;;;;;11.03;93.06;100241.94;5035823;28;20045;-75
2022/11/09 07:13:41;;;;;;;1999.90;999.90;;;;;;;11.05;92.64;100226.94;5038016;28;20469;-74
2022/11/09 07:16:06;;;;;;;1999.90;999.90;;;;;;;11.10;92.65;100231.25;5041769;28;20044;-74
2022/11/09 07:18:33;;;;;;;1999.90;999.90;;;;;;;11.19;92.30;100232.94;5032656;28;20041;-74
2022/11/09 07:20:58;;;;;;;1999.90;999.90;;;;;;;11.28;91.35;100234.56;5038970;28;20461;-74
2022/11/09 07:23:23;;;;;;;1999.90;999.90;;;;;;;11.34;90.76;100235.38;5036504;28;20037;-74
2022/11/09 07:25:49;;;;;;;1999.90;999.90;;;;;;;11.39;90.14;100238.78;5037348;28;20037;-74
2022/11/09 07:28:15;;;;;;;1999.90;999.90;;;;;;;11.44;89.28;100245.78;5041804;28;20041;-74
2022/11/09 07:30:40;;;;;;;1999.90;999.90;;;;;;;11.50;89.53;100246.59;5042916;28;20033;-74
2022/11/09 07:33:14;;;;;;;1999.90;999.90;;;;;;;11.57;89.09;100242.06;5040029;28;20423;-74
2022/11/09 07:35:39;;;;;;;1999.90;999.90;;;;;;;11.55;88.24;100233.28;5034574;28;20029;-75
2022/11/09 07:38:05;;;;;;;1999.90;999.90;;;;;;;11.62;88.68;100229.66;5038343;28;20041;-74
2022/11/09 07:40:30;;;;;;;1999.90;999.90;;;;;;;11.70;87.89;100226.91;5038643;28;20055;-75
2022/11/09 07:43:05;;;;;;;1999.90;999.90;;;;;;;11.79;87.56;100222.34;5044081;28;20033;-74
2022/11/09 07:45:33;;;;;;;1999.90;999.90;;;;;;;11.83;87.15;100226.69;5041566;28;20103;-74
2022/11/09 07:48:01;;;;;;;1999.90;999.90;;;;;;;11.84;87.28;100231.09;5040627;28;20037;-74
2022/11/09 07:50:29;;;;;;;1999.90;999.90;;;;;;;11.87;86.52;100226.66;5038880;28;20045;-74
2022/11/09 07:52:55;;;;;;;1999.90;999.90;;;;;;;11.91;85.73;100231.00;5035490;28;20029;-74
2022/11/09 07:55:21;;;;;;;1999.90;999.90;;;;;;;11.98;85.77;100232.66;5043987;28;20040;-75
2022/11/09 07:57:47;;;;;;;1999.90;999.90;;;;;;;12.02;85.17;100234.34;5043054;28;20115;-74
2022/11/09 08:00:13;;;;;;;1999.90;999.90;;;;;;;12.04;84.93;100237.84;5042344;28;20041;-75
2022/11/09 08:02:39;;;;;;;1999.90;999.90;;;;;;;12.09;83.68;100235.13;5038690;28;20377;-74
2022/11/09 08:05:04;;;;;;;1999.90;999.90;;;;;;;12.20;84.12;100241.09;5044669;28;20063;-75
2022/11/09 08:07:32;;;;;;;1999.90;999.90;;;;;;;12.30;84.03;100247.09;5041387;28;20036;-74
2022/11/09 08:09:57;;;;;;;1999.90;999.90;;;;;;;12.23;83.25;100249.84;5044263;28;20045;-74
2022/11/09 08:12:22;;;;;;;1999.90;999.90;;;;;;;12.30;83.14;100260.34;5042637;28;20125;-74
2022/11/09 08:14:47;;;;;;;1999.90;999.90;;;;;;;12.35;82.77;100261.13;5042426;28;20021;-74
2022/11/09 08:17:13;;;;;;;1999.90;999.90;;;;;;;12.30;82.63;100258.56;5044999;28;20048;-74
2022/11/09 08:19:38;;;;;;;1999.90;999.90;;;;;;;12.18;82.62;100251.72;5042650;28;20087;-74
2022/11/09 08:22:03;;;;;;;1999.90;999.90;;;;;;;12.16;83.50;100258.81;5042501;28;20045;-75
2022/11/09 08:24:29;;;;;;;1999.90;999.90;;;;;;;12.07;83.18;100256.28;5043575;28;20068;-74
2022/11/09 08:26:54;;;;;;;1999.90;999.90;;;;;;;12.04;83.40;100261.66;5042630;28;20041;-74
2022/11/09 08:29:20;;;;;;;1999.90;999.90;;;;;;;12.09;83.88;100261.56;5040227;28;20041;-74
2022/11/09 08:31:48;;;;;;;1999.90;999.90;;;;;;;12.07;83.04;100266.88;5044645;28;20718;-74
2022/11/09 08:34:14;;;;;;;1999.90;999.90;;;;;;;12.09;83.53;100265.09;5042960;28;20033;-74
2022/11/09 08:36:39;;;;;;;1999.90;999.90;;;;;;;12.07;83.15;100270.38;5039484;28;20045;-74
2022/11/09 08:39:05;;;;;;;1999.90;999.90;;;;;;;12.11;83.16;100265.06;5032748;28;20045;-75
2022/11/09 08:41:30;;;;;;;1999.90;999.90;;;;;;;12.17;83.38;100260.53;5042577;28;20120;-74
2022/11/09 08:43:56;;;;;;;1999.90;999.90;;;;;;;12.15;83.79;100278.19;5043497;28;20045;-75
2022/11/09 08:46:21;;;;;;;1999.90;999.90;;;;;;;12.17;83.88;100286.13;5040476;28;20456;-75
2022/11/09 08:48:46;;;;;;;1999.90;999.90;;;;;;;12.18;83.65;100277.28;5032622;28;20091;-75
2022/11/09 08:51:12;;;;;;;1999.90;999.90;;;;;;;12.17;83.93;100281.69;5040878;28;20029;-74
2022/11/09 08:53:37;;;;;;;1999.90;999.90;;;;;;;12.19;84.24;100287.84;5041372;28;20041;-74
2022/11/09 08:56:06;;;;;;;1999.90;999.90;;;;;;;12.16;85.27;100294.97;5037756;28;20068;-74
2022/11/09 08:58:31;;;;;;;1999.90;999.90;;;;;;;12.11;86.10;100291.53;5041131;28;20048;-74
2022/11/09 09:00:57;;;;;;;1999.90;999.90;;;;;;;12.06;87.79;100291.59;5040502;28;20037;-74
2022/11/09 09:03:22;;;;;;;1999.90;999.90;;;;;;;12.07;87.86;100288.03;5035718;28;20033;-74
2022/11/09 09:05:47;;;;;;;1999.90;999.90;;;;;;;12.01;88.44;100289.00;5041023;28;20094;-75
2022/11/09 09:08:14;;;;;;;1999.90;999.90;;;;;;;12.00;89.19;100291.72;5038707;28;20052;-75
2022/11/09 09:10:40;;;;;;;1999.90;999.90;;;;;;;12.00;89.34;100291.72;5043030;28;20033;-75
2022/11/09 09:13:05;;;;;;;1999.90;999.90;;;;;;;12.02;89.46;100282.81;5041015;28;20044;-75
2022/11/09 09:15:31;;;;;;;1999.90;999.90;;;;;;;12.03;89.46;100287.22;5043946;28;20083;-75
2022/11/09 09:18:00;;;;;;;1999.90;999.90;;;;;;;12.00;90.44;100291.72;5041162;28;20124;-75
2022/11/09 09:20:26;;;;;;;1999.90;999.90;;;;;;;12.03;90.89;100278.44;5042733;28;20032;-75
2022/11/09 09:22:51;;;;;;;1999.90;999.90;;;;;;;12.05;91.53;100281.91;5041792;28;20518;-75
2022/11/09 09:25:16;;;;;;;1999.90;999.90;;;;;;;12.06;91.23;100286.31;5039946;28;20048;-75
2022/11/09 09:27:45;;;;;;;1999.90;999.90;;;;;;;12.02;91.67;100285.47;5043613;28;20045;-75
2022/11/09 09:30:11;;;;;;;1999.90;999.90;;;;;;;11.94;93.27;100283.84;5037737;28;20135;-75
2022/11/09 09:32:36;;;;;;;1999.90;999.90;;;;;;;11.84;93.74;100288.34;5040157;28;20141;-75
2022/11/09 09:35:01;;;;;;;1999.90;999.90;;;;;;;11.87;94.30;100292.75;5040136;28;20033;-75
2022/11/09 09:37:27;;;;;;;1999.90;999.90;;;;;;;11.90;94.08;100290.97;5037542;28;20119;-74
2022/11/09 09:39:52;;;;;;;1999.90;999.90;;;;;;;12.01;94.05;100296.94;5039897;28;20044;-74
2022/11/09 09:42:30;;;;;;;1999.90;999.90;;;;;;;12.07;93.24;100309.19;5039214;28;20037;-75
2022/11/09 09:45:07;;;;;;;1999.90;999.90;;;;;;;12.13;92.79;100295.00;5041895;28;20044;-75
2022/11/09 09:47:44;;;;;;;1999.90;999.90;;;;;;;12.31;92.92;100291.19;5035060;28;20033;-75
2022/11/09 09:50:17;;;;;;;1999.90;999.90;;;;;;;12.46;92.61;100282.97;5040856;28;20050;-75
2022/11/09 09:52:51;;;;;;;1999.90;999.90;;;;;;;12.60;92.83;100288.91;5027052;28;20041;-75
2022/11/09 09:55:26;;;;;;;1999.90;999.90;;;;;;;12.64;91.81;100280.00;5032631;28;20045;-75
2022/11/09 09:57:59;;;;;;;1999.90;999.90;;;;;;;12.58;91.87;100280.13;5031734;28;20442;-75
2022/11/09 10:00:26;;;;;;;1999.90;999.90;;;;;;;12.60;92.15;100270.38;5027350;28;20032;-75
2022/11/09 10:02:53;;;;;;;1999.90;999.90;;;;;;;12.63;91.90;100269.44;5039299;28;20079;-75
2022/11/09 10:05:26;;;;;;;1999.90;999.90;;;;;;;12.59;92.19;100276.56;5036361;28;20041;-75
2022/11/09 10:08:07;;;;;;;1999.90;999.90;;;;;;;12.64;91.82;100290.59;5044768;28;20033;-75
2022/11/09 10:10:43;;;;;;;1999.90;999.90;;;;;;;12.65;91.59;100292.34;5040059;28;20034;-75
2022/11/09 10:13:27;;;;;;;1999.90;999.90;;;;;;;12.78;90.64;100289.44;5036468;28;20430;-75
2022/11/09 10:16:15;;;;;;;1999.90;999.90;;;;;;;12.92;90.84;100295.38;5036457;28;20044;-75
2022/11/09 10:19:20;;;;;;;1999.90;999.90;;;;;;;12.99;90.40;100286.38;5036447;28;20064;-75
2022/11/09 10:21:57;;;;;;;1999.90;999.90;;;;;;;13.10;90.29;100281.75;5042608;28;20415;-74
2022/11/09 10:24:46;;;;;;;1999.90;999.90;;;;;;;13.25;89.64;100287.63;5041919;28;20120;-75
2022/11/09 10:27:45;;;;;;;1999.90;999.90;;;;;;;13.27;88.90;100278.78;5039137;28;20040;-75
2022/11/09 10:30:15;;;;;;;1999.90;999.90;;;;;;;13.21;89.62;100272.72;5040975;28;20045;-75
2022/11/09 10:32:43;;;;;;;1999.90;999.90;;;;;;;12.90;90.16;100268.91;5037847;28;20036;-75
2022/11/09 10:35:11;;;;;;;1999.90;999.90;;;;;;;12.88;91.54;100269.84;5040214;28;20519;-75
2022/11/09 10:37:45;;;;;;;1999.90;999.90;;;;;;;12.90;91.87;100258.31;5037206;28;20636;-75
2022/11/09 10:40:27;;;;;;;1999.90;999.90;;;;;;;12.99;92.13;100267.84;5042017;28;20041;-75
2022/11/09 10:43:13;;;;;;;1999.90;999.90;;;;;;;13.04;91.90;100260.66;5036238;28;20048;-75
2022/11/09 10:46:04;;;;;;;1999.90;999.90;;;;;;;13.21;91.66;100265.63;5039300;28;20574;-75
2022/11/09 10:48:48;;;;;;;1999.90;999.90;;;;;;;13.37;91.14;100263.56;5041353;28;20080;-75
2022/11/09 10:51:45;;;;;;;1999.90;999.90;;;;;;;13.59;90.53;100261.28;5036542;28;20052;-75
2022/11/09 10:54:36;;;;;;;1999.90;999.90;;;;;;;13.69;90.41;100254.88;5038653;28;20609;-75